Time;durP1;ratioP1;P1;durP2;ratioP2;P2;SDS_P1;SDS_P2;PMS_P1;PMS_P2;Temp;Humidity;BMP_temperature;BMP_pressure;BME280_temperature;BME280_humidity;BME280_pressure;Samples;Min_cycle;Max_cycle;Signal;HPM_P1;HPM_P2
2021/09/25 00:01:33;;;;;;;17.13;12.50;;;14.70;77.10;;;;;;5026565;28;20088;-84
2021/09/25 00:04:02;;;;;;;19.45;12.82;;;14.70;77.20;;;;;;5013608;28;20096;-84
2021/09/25 00:06:30;;;;;;;17.10;13.30;;;14.60;77.20;;;;;;5013408;28;20085;-84
2021/09/25 00:08:57;;;;;;;14.68;11.35;;;14.60;77.20;;;;;;5012935;28;20049;-84
2021/09/25 00:11:26;;;;;;;21.55;14.95;;;14.60;77.20;;;;;;5013332;28;20532;-84
2021/09/25 00:13:53;;;;;;;16.65;12.82;;;14.60;77.30;;;;;;5011301;28;20053;-84
2021/09/25 00:16:25;;;;;;;19.27;15.18;;;14.60;77.30;;;;;;5012610;28;20410;-84
2021/09/25 00:18:57;;;;;;;18.75;14.45;;;14.60;77.30;;;;;;5013130;28;20046;-84
2021/09/25 00:21:25;;;;;;;20.40;14.85;;;14.60;77.40;;;;;;5013207;28;20050;-84
2021/09/25 00:23:52;;;;;;;20.30;15.15;;;14.50;77.40;;;;;;5012951;28;20120;-84
2021/09/25 00:26:20;;;;;;;18.90;14.15;;;14.50;77.40;;;;;;5013286;28;20095;-84
2021/09/25 00:28:47;;;;;;;19.52;14.00;;;14.50;77.50;;;;;;5011020;28;20569;-84
2021/09/25 00:31:15;;;;;;;17.42;13.15;;;14.40;77.50;;;;;;5012860;28;20412;-84
2021/09/25 00:33:42;;;;;;;24.00;14.90;;;14.40;77.50;;;;;;5016006;28;20108;-84
2021/09/25 00:36:09;;;;;;;19.17;14.00;;;14.40;77.30;;;;;;5016041;28;20099;-84
2021/09/25 00:38:36;;;;;;;21.48;15.80;;;14.40;77.20;;;;;;5015258;28;20046;-84
2021/09/25 00:41:05;;;;;;;17.50;14.05;;;14.40;77.30;;;;;;5011985;28;20046;-84
2021/09/25 00:43:33;;;;;;;20.80;15.25;;;14.40;77.20;;;;;;5015063;28;20104;-84
2021/09/25 00:46:00;;;;;;;18.88;14.70;;;14.40;77.20;;;;;;5015978;28;20050;-85
2021/09/25 00:48:27;;;;;;;21.85;15.77;;;14.40;77.30;;;;;;5015967;28;20057;-84
2021/09/25 00:50:54;;;;;;;22.20;15.35;;;14.40;77.30;;;;;;5015920;28;20046;-84
2021/09/25 00:53:21;;;;;;;21.42;15.88;;;14.30;77.40;;;;;;5013233;28;20049;-85
2021/09/25 00:55:48;;;;;;;20.58;16.77;;;14.30;77.40;;;;;;5013463;28;20573;-85
2021/09/25 00:58:17;;;;;;;21.10;15.77;;;14.30;77.40;;;;;;5015052;28;20081;-84
2021/09/25 01:00:44;;;;;;;19.80;16.10;;;14.30;77.50;;;;;;5015596;28;20050;-84
2021/09/25 01:03:11;;;;;;;21.08;16.20;;;14.20;77.50;;;;;;5015693;28;20050;-84
2021/09/25 01:05:41;;;;;;;18.02;14.60;;;14.20;77.60;;;;;;5015550;28;20133;-84
2021/09/25 01:08:08;;;;;;;18.80;15.43;;;14.10;77.50;;;;;;5013199;28;20498;-84
2021/09/25 01:10:35;;;;;;;20.70;14.80;;;14.20;77.50;;;;;;5014277;28;20506;-85
2021/09/25 01:13:02;;;;;;;17.60;13.65;;;14.10;77.60;;;;;;5019303;28;20111;-85
2021/09/25 01:15:29;;;;;;;21.85;15.70;;;14.10;77.50;;;;;;5019220;28;20104;-84
2021/09/25 01:17:56;;;;;;;19.55;15.68;;;14.10;77.60;;;;;;5019214;28;20120;-84
2021/09/25 01:20:23;;;;;;;20.88;14.77;;;14.10;77.60;;;;;;5016973;28;20092;-84
2021/09/25 01:22:50;;;;;;;22.02;17.98;;;14.10;77.60;;;;;;5016405;28;20046;-85
2021/09/25 01:25:17;;;;;;;20.17;15.50;;;14.00;77.60;;;;;;5018203;28;20534;-84
2021/09/25 01:27:44;;;;;;;20.58;15.27;;;14.00;77.60;;;;;;5018868;28;20108;-85
2021/09/25 01:30:14;;;;;;;25.17;16.70;;;14.00;77.70;;;;;;5018847;28;20580;-85
2021/09/25 01:32:42;;;;;;;22.38;16.88;;;13.90;77.60;;;;;;5019025;28;20502;-85
2021/09/25 01:35:10;;;;;;;20.25;16.15;;;13.90;77.70;;;;;;5014856;28;20150;-85
2021/09/25 01:37:37;;;;;;;22.00;17.02;;;13.90;77.80;;;;;;5017021;28;20053;-84
2021/09/25 01:40:06;;;;;;;22.90;18.15;;;13.90;77.90;;;;;;5015940;28;20050;-84
2021/09/25 01:42:34;;;;;;;22.60;17.17;;;13.90;78.00;;;;;;5015840;28;20108;-85
2021/09/25 01:45:02;;;;;;;24.00;17.30;;;13.90;78.00;;;;;;5015779;28;20049;-84
2021/09/25 01:47:28;;;;;;;21.30;15.82;;;13.80;78.10;;;;;;5015837;28;20053;-85
2021/09/25 01:49:59;;;;;;;23.50;17.67;;;13.80;78.10;;;;;;5014061;28;20050;-85
2021/09/25 01:52:27;;;;;;;20.63;15.68;;;13.80;78.10;;;;;;4996394;28;20435;-85
2021/09/25 01:54:55;;;;;;;21.17;16.70;;;13.70;78.10;;;;;;5015491;28;20469;-85
2021/09/25 01:57:21;;;;;;;24.65;17.70;;;13.70;78.10;;;;;;5015536;28;20072;-85
2021/09/25 01:59:48;;;;;;;25.70;18.83;;;13.70;78.20;;;;;;5015365;28;20069;-84
2021/09/25 02:02:16;;;;;;;25.42;18.75;;;13.70;78.40;;;;;;5015425;28;20037;-85
2021/09/25 02:04:47;;;;;;;24.27;18.38;;;13.60;78.50;;;;;;5013118;28;20097;-84
2021/09/25 02:07:18;;;;;;;23.05;18.15;;;13.60;78.60;;;;;;5010505;28;20046;-84
2021/09/25 02:09:46;;;;;;;24.98;18.15;;;13.50;78.70;;;;;;5017425;28;20050;-85
2021/09/25 02:12:13;;;;;;;24.15;17.52;;;13.60;78.80;;;;;;5015176;28;20112;-85
2021/09/25 02:14:40;;;;;;;24.77;17.20;;;13.50;78.80;;;;;;5015180;28;20121;-85
2021/09/25 02:17:07;;;;;;;25.30;18.05;;;13.60;78.90;;;;;;5014086;28;20095;-84
2021/09/25 02:19:34;;;;;;;25.77;17.63;;;13.50;78.90;;;;;;5027113;28;20057;-85
2021/09/25 02:22:01;;;;;;;22.27;16.38;;;13.50;78.90;;;;;;5015271;28;20454;-85
2021/09/25 02:24:28;;;;;;;21.70;17.20;;;13.50;78.90;;;;;;5014933;28;20116;-85
2021/09/25 02:26:56;;;;;;;22.45;18.15;;;13.50;78.90;;;;;;5014797;28;20108;-84
2021/09/25 02:29:23;;;;;;;30.50;19.02;;;13.50;78.90;;;;;;5015493;28;20565;-85
2021/09/25 02:31:50;;;;;;;25.00;18.77;;;13.40;78.90;;;;;;5015469;28;20046;-85
2021/09/25 02:34:17;;;;;;;24.63;19.25;;;13.40;79.00;;;;;;5016512;28;20057;-85
2021/09/25 02:36:44;;;;;;;23.20;16.40;;;13.40;79.00;;;;;;5017694;28;20065;-85
2021/09/25 02:39:11;;;;;;;23.33;18.20;;;13.40;79.10;;;;;;5017545;28;20049;-85
2021/09/25 02:41:38;;;;;;;27.60;19.65;;;13.40;79.10;;;;;;5017307;28;20103;-85
2021/09/25 02:44:05;;;;;;;24.48;19.02;;;13.40;79.20;;;;;;5013384;28;20054;-85
2021/09/25 02:46:32;;;;;;;27.80;18.90;;;13.40;79.20;;;;;;5016790;28;20104;-85
2021/09/25 02:48:59;;;;;;;30.60;18.50;;;13.40;79.20;;;;;;5017140;28;20096;-85
2021/09/25 02:51:25;;;;;;;26.65;18.13;;;13.30;79.30;;;;;;5017431;28;20054;-85
2021/09/25 02:53:52;;;;;;;22.55;18.65;;;13.30;79.40;;;;;;5017537;28;20108;-84
2021/09/25 02:56:19;;;;;;;23.20;17.95;;;13.30;79.50;;;;;;5014690;28;20038;-85
2021/09/25 02:58:46;;;;;;;20.67;16.27;;;13.20;79.60;;;;;;5014982;28;20045;-85
2021/09/25 03:01:13;;;;;;;19.30;15.45;;;13.20;79.70;;;;;;5016770;28;20077;-85
2021/09/25 03:03:40;;;;;;;18.92;14.65;;;13.10;79.70;;;;;;5016769;28;20056;-85
2021/09/25 03:06:07;;;;;;;21.88;15.25;;;13.10;79.80;;;;;;5017088;28;20054;-85
2021/09/25 03:08:34;;;;;;;19.83;14.32;;;13.10;79.80;;;;;;5016683;28;20045;-85
2021/09/25 03:11:01;;;;;;;18.95;14.43;;;13.10;79.80;;;;;;5013396;28;20604;-85
2021/09/25 03:13:28;;;;;;;17.17;13.77;;;13.10;79.80;;;;;;5013291;28;20489;-85
2021/09/25 03:15:55;;;;;;;17.95;13.88;;;13.10;79.80;;;;;;5015059;28;20050;-85
2021/09/25 03:18:21;;;;;;;17.60;13.13;;;13.10;79.80;;;;;;5013701;28;20104;-85
2021/09/25 03:20:48;;;;;;;15.38;12.57;;;13.10;79.80;;;;;;5013719;28;20053;-85
2021/09/25 03:23:15;;;;;;;16.27;13.40;;;13.10;79.80;;;;;;5014053;28;20099;-85
2021/09/25 03:25:42;;;;;;;17.83;12.65;;;13.10;79.80;;;;;;5011679;28;20062;-85
2021/09/25 03:28:09;;;;;;;14.70;12.40;;;13.00;79.80;;;;;;5013579;28;20119;-85
2021/09/25 03:30:36;;;;;;;14.00;11.82;;;13.00;79.90;;;;;;5013579;28;20506;-85
2021/09/25 03:33:03;;;;;;;14.77;12.23;;;13.00;79.90;;;;;;5013512;28;20287;-85
2021/09/25 03:35:30;;;;;;;13.05;11.65;;;13.00;79.90;;;;;;5015498;28;20049;-84
2021/09/25 03:38:00;;;;;;;16.08;12.30;;;13.00;79.90;;;;;;5013368;28;20053;-86
2021/09/25 03:40:28;;;;;;;16.67;12.73;;;13.00;79.90;;;;;;5015693;28;20518;-86
2021/09/25 03:42:55;;;;;;;14.40;11.85;;;12.90;79.80;;;;;;5016603;28;20046;-85
2021/09/25 03:45:22;;;;;;;15.15;11.88;;;12.90;79.90;;;;;;5016695;28;20049;-85
2021/09/25 03:47:54;;;;;;;14.50;11.43;;;12.90;79.90;;;;;;5016534;28;20049;-85
2021/09/25 03:50:21;;;;;;;14.32;11.02;;;12.90;79.90;;;;;;5014149;28;20057;-85
2021/09/25 03:52:48;;;;;;;15.43;11.73;;;12.90;79.90;;;;;;5014098;28;20097;-85
2021/09/25 03:55:15;;;;;;;15.20;11.30;;;12.90;79.90;;;;;;5015725;28;20116;-86
2021/09/25 03:57:42;;;;;;;18.30;13.18;;;12.90;79.90;;;;;;5016395;28;20049;-85
2021/09/25 04:00:10;;;;;;;15.13;12.43;;;12.90;79.90;;;;;;5016438;28;20533;-85
2021/09/25 04:02:37;;;;;;;16.95;12.52;;;12.90;80.10;;;;;;4996380;28;20506;-85
2021/09/25 04:05:04;;;;;;;15.77;12.70;;;12.90;80.20;;;;;;5029080;28;20042;-86
2021/09/25 04:07:31;;;;;;;18.73;14.43;;;12.90;80.30;;;;;;5011243;28;20050;-86
2021/09/25 04:09:58;;;;;;;14.65;12.68;;;12.90;80.40;;;;;;5013424;28;20115;-85
2021/09/25 04:12:25;;;;;;;16.20;12.45;;;13.00;80.50;;;;;;5013283;28;20104;-85
2021/09/25 04:14:52;;;;;;;18.70;13.10;;;13.00;80.60;;;;;;5013478;28;20096;-85
2021/09/25 04:17:19;;;;;;;13.75;11.45;;;13.00;80.60;;;;;;5013070;28;20449;-85
2021/09/25 04:19:45;;;;;;;19.00;13.40;;;13.10;80.70;;;;;;5011220;28;20120;-86
2021/09/25 04:22:12;;;;;;;14.57;11.25;;;13.10;80.70;;;;;;5012994;28;20049;-86
2021/09/25 04:24:39;;;;;;;13.40;11.40;;;13.10;80.80;;;;;;5013245;28;20108;-86
2021/09/25 04:27:06;;;;;;;15.93;11.55;;;13.20;80.80;;;;;;5012960;28;20084;-86
2021/09/25 04:29:33;;;;;;;16.52;13.18;;;13.20;80.70;;;;;;5013298;28;20103;-85
2021/09/25 04:32:00;;;;;;;19.92;12.45;;;13.20;80.70;;;;;;5011934;28;20087;-86
2021/09/25 04:34:28;;;;;;;15.18;11.73;;;13.20;80.60;;;;;;5011500;28;20054;-86
2021/09/25 04:36:55;;;;;;;15.93;12.18;;;13.20;80.60;;;;;;5013083;28;20108;-85
2021/09/25 04:39:24;;;;;;;14.05;12.45;;;13.20;80.50;;;;;;5012989;28;20560;-86
2021/09/25 04:41:52;;;;;;;13.85;9.43;;;13.20;80.50;;;;;;5012956;28;20054;-86
2021/09/25 04:44:19;;;;;;;16.42;12.10;;;13.20;80.40;;;;;;5015421;28;20088;-85
2021/09/25 04:46:46;;;;;;;15.18;11.05;;;13.20;80.40;;;;;;5014932;28;20057;-85
2021/09/25 04:49:13;;;;;;;15.32;11.65;;;13.20;80.30;;;;;;5016683;28;20104;-86
2021/09/25 04:51:40;;;;;;;14.02;10.20;;;13.20;80.30;;;;;;4999492;28;20058;-85
2021/09/25 04:54:06;;;;;;;13.40;11.02;;;13.20;80.30;;;;;;5017640;28;20478;-86
2021/09/25 04:56:34;;;;;;;14.25;9.88;;;13.20;80.20;;;;;;5016760;28;20096;-85
2021/09/25 04:59:01;;;;;;;14.00;10.38;;;13.20;80.10;;;;;;5015566;28;20049;-86
2021/09/25 05:01:28;;;;;;;13.70;10.38;;;13.20;80.10;;;;;;5014773;28;20108;-85
2021/09/25 05:03:56;;;;;;;18.20;11.52;;;13.20;80.10;;;;;;4999390;28;20069;-86
2021/09/25 05:06:23;;;;;;;12.88;9.55;;;13.20;80.00;;;;;;5007901;28;20620;-86
2021/09/25 05:08:50;;;;;;;15.10;10.80;;;13.20;80.00;;;;;;5026106;28;20046;-85
2021/09/25 05:11:17;;;;;;;18.02;12.38;;;13.20;80.00;;;;;;5016514;28;20506;-86
2021/09/25 05:13:44;;;;;;;21.23;10.63;;;13.20;79.90;;;;;;5014024;28;20045;-86
2021/09/25 05:16:11;;;;;;;18.58;12.88;;;13.10;79.90;;;;;;5016202;28;20077;-85
2021/09/25 05:18:40;;;;;;;17.10;12.18;;;13.10;79.90;;;;;;5016383;28;20046;-86
2021/09/25 05:21:07;;;;;;;17.38;12.80;;;13.10;80.00;;;;;;5016091;28;20058;-86
2021/09/25 05:23:35;;;;;;;14.85;12.23;;;13.00;80.00;;;;;;5016286;28;20100;-85
2021/09/25 05:26:05;;;;;;;17.30;12.90;;;13.00;80.10;;;;;;5015575;28;20049;-86
2021/09/25 05:28:32;;;;;;;14.45;11.63;;;12.90;80.30;;;;;;5028865;28;20056;-86
2021/09/25 05:30:59;;;;;;;18.95;13.40;;;12.90;80.40;;;;;;5016278;28;20473;-85
2021/09/25 05:33:26;;;;;;;21.20;13.10;;;12.90;80.60;;;;;;5016212;28;20050;-87
2021/09/25 05:35:53;;;;;;;19.40;13.68;;;12.90;80.70;;;;;;5016020;28;20104;-87
2021/09/25 05:38:20;;;;;;;16.27;13.30;;;12.90;80.90;;;;;;5016378;28;20041;-87
2021/09/25 05:40:47;;;;;;;27.83;14.48;;;12.90;81.00;;;;;;5013760;28;20510;-87
2021/09/25 05:43:14;;;;;;;21.08;14.00;;;12.90;81.10;;;;;;5015311;28;20077;-88
2021/09/25 05:45:40;;;;;;;19.40;14.55;;;12.90;81.20;;;;;;5018298;28;20480;-88
2021/09/25 05:48:07;;;;;;;17.75;13.00;;;12.90;81.30;;;;;;5029021;28;20506;-88
2021/09/25 05:50:34;;;;;;;22.10;14.77;;;12.90;81.40;;;;;;5020537;28;20564;-88
2021/09/25 05:53:01;;;;;;;18.58;13.75;;;13.00;81.50;;;;;;5030165;28;20049;-89
2021/09/25 05:55:29;;;;;;;17.40;13.38;;;13.00;81.60;;;;;;5029921;28;20053;-88
2021/09/25 05:58:01;;;;;;;18.90;13.77;;;13.00;81.70;;;;;;5029420;28;20054;-88
2021/09/25 06:00:29;;;;;;;18.02;14.57;;;13.10;81.80;;;;;;5029157;28;20096;-88
2021/09/25 06:02:57;;;;;;;17.85;14.25;;;13.10;81.90;;;;;;5012105;28;20050;-88
2021/09/25 06:05:25;;;;;;;20.63;15.10;;;13.10;82.00;;;;;;5029591;28;20467;-88
2021/09/25 06:07:52;;;;;;;24.05;14.45;;;13.10;82.10;;;;;;5029849;28;20057;-88
2021/09/25 06:10:19;;;;;;;20.65;14.40;;;13.20;82.20;;;;;;5031954;28;20055;-89
2021/09/25 06:12:46;;;;;;;21.38;15.57;;;13.20;82.30;;;;;;5028903;28;20053;-88
2021/09/25 06:15:13;;;;;;;24.35;15.18;;;13.20;82.40;;;;;;5029348;28;20072;-89
2021/09/25 06:17:41;;;;;;;17.25;13.88;;;13.30;82.50;;;;;;5028800;28;20151;-88
2021/09/25 06:20:10;;;;;;;18.67;13.43;;;13.30;82.60;;;;;;5029326;28;20049;-88
2021/09/25 06:22:37;;;;;;;19.00;14.65;;;13.40;82.60;;;;;;5033043;28;20660;-88
2021/09/25 06:25:05;;;;;;;16.13;10.82;;;13.40;82.60;;;;;;5031699;28;20112;-87
2021/09/25 06:27:32;;;;;;;20.23;13.23;;;13.40;82.60;;;;;;5030543;28;20049;-86
2021/09/25 06:29:58;;;;;;;16.50;12.38;;;13.40;82.60;;;;;;5011353;28;20041;-87
2021/09/25 06:32:25;;;;;;;16.67;12.05;;;13.40;82.70;;;;;;5029313;28;20038;-87
2021/09/25 06:34:52;;;;;;;18.02;14.00;;;13.50;82.70;;;;;;5031323;28;20053;-88
2021/09/25 06:37:19;;;;;;;18.02;14.52;;;13.50;82.70;;;;;;5031309;28;20103;-88
2021/09/25 06:39:46;;;;;;;23.23;15.35;;;13.50;82.60;;;;;;5028893;28;20053;-88
2021/09/25 06:42:13;;;;;;;14.98;11.43;;;13.60;82.70;;;;;;5028225;28;20407;-87
2021/09/25 06:44:40;;;;;;;21.25;14.43;;;13.60;82.70;;;;;;5028705;28;20053;-88
2021/09/25 06:47:07;;;;;;;19.70;15.07;;;13.70;82.70;;;;;;5029302;28;20091;-89
2021/09/25 06:49:34;;;;;;;19.17;14.55;;;13.60;82.80;;;;;;5028627;28;20042;-89
2021/09/25 06:52:01;;;;;;;16.80;13.82;;;13.70;82.80;;;;;;5028409;28;20058;-88
2021/09/25 06:54:31;;;;;;;18.02;14.27;;;13.70;82.90;;;;;;5028887;28;20103;-87
2021/09/25 06:56:58;;;;;;;17.65;13.45;;;13.70;82.90;;;;;;5028261;28;20104;-88
2021/09/25 06:59:25;;;;;;;16.73;13.38;;;13.80;83.00;;;;;;5028658;28;20103;-87
2021/09/25 07:01:52;;;;;;;17.58;13.48;;;13.80;83.00;;;;;;5030724;28;20049;-88
2021/09/25 07:04:20;;;;;;;16.63;12.85;;;13.80;83.00;;;;;;5031353;28;20057;-87
2021/09/25 07:06:47;;;;;;;17.83;11.57;;;13.80;83.00;;;;;;5027460;28;20045;-85
2021/09/25 07:09:14;;;;;;;15.85;12.80;;;13.80;83.00;;;;;;5031666;28;20076;-86
2021/09/25 07:11:41;;;;;;;16.00;12.35;;;13.80;83.00;;;;;;5010888;28;20402;-86
2021/09/25 07:14:08;;;;;;;15.45;12.15;;;13.90;83.00;;;;;;5028376;28;20111;-90
2021/09/25 07:16:36;;;;;;;18.77;12.38;;;13.80;82.90;;;;;;5033004;28;20395;-87
2021/09/25 07:19:06;;;;;;;19.10;12.02;;;13.90;83.00;;;;;;5027929;28;20099;-86
2021/09/25 07:21:33;;;;;;;18.20;12.80;;;13.90;83.00;;;;;;5027987;28;20080;-86
2021/09/25 07:24:00;;;;;;;20.60;11.77;;;13.90;83.00;;;;;;5028075;28;20042;-84
2021/09/25 07:26:27;;;;;;;19.92;14.77;;;13.90;83.00;;;;;;5029464;28;20103;-85
2021/09/25 07:28:54;;;;;;;19.48;14.63;;;13.90;83.00;;;;;;5029379;28;20057;-86
2021/09/25 07:31:21;;;;;;;20.92;13.43;;;13.90;83.10;;;;;;5029621;28;20111;-87
2021/09/25 07:33:48;;;;;;;19.27;14.45;;;14.00;83.30;;;;;;5026815;28;20054;-86
2021/09/25 07:36:16;;;;;;;18.95;14.52;;;14.00;83.30;;;;;;5026678;28;20107;-86
2021/09/25 07:38:43;;;;;;;17.25;13.43;;;14.00;83.40;;;;;;5026443;28;20046;-86
2021/09/25 07:41:10;;;;;;;16.13;11.98;;;14.00;83.50;;;;;;5008191;28;20624;-86
2021/09/25 07:43:37;;;;;;;17.45;13.32;;;14.10;83.60;;;;;;5030843;28;20104;-87
2021/09/25 07:46:04;;;;;;;19.08;13.02;;;14.10;83.70;;;;;;5029194;28;20045;-88
2021/09/25 07:48:31;;;;;;;23.08;14.32;;;14.20;83.70;;;;;;5026615;28;20104;-86
2021/09/25 07:50:57;;;;;;;21.38;13.75;;;14.20;83.70;;;;;;5026590;28;20095;-86
2021/09/25 07:53:24;;;;;;;19.55;15.02;;;14.30;83.80;;;;;;5027392;28;20100;-86
2021/09/25 07:55:51;;;;;;;20.25;14.77;;;14.40;83.90;;;;;;5029038;28;20046;-87
2021/09/25 07:58:18;;;;;;;17.77;13.55;;;14.40;83.90;;;;;;5028803;28;20457;-87
2021/09/25 08:00:45;;;;;;;20.58;12.98;;;14.50;83.90;;;;;;5026170;28;20391;-86
2021/09/25 08:03:13;;;;;;;18.05;13.80;;;14.60;83.90;;;;;;5028811;28;20050;-86
2021/09/25 08:05:40;;;;;;;22.33;15.70;;;14.70;83.90;;;;;;5026394;28;20055;-86
2021/09/25 08:08:07;;;;;;;21.23;15.50;;;14.80;84.00;;;;;;5026318;28;20050;-86
2021/09/25 08:10:34;;;;;;;17.38;12.65;;;14.90;83.90;;;;;;5026522;28;20654;-87
2021/09/25 08:13:01;;;;;;;17.65;13.50;;;14.90;84.00;;;;;;5026201;28;20052;-86
2021/09/25 08:15:46;;;;;;;18.73;13.48;;;15.00;83.90;;;;;;5026189;28;20485;-86
2021/09/25 08:18:13;;;;;;;15.23;11.88;;;15.10;83.90;;;;;;5009537;28;20041;-86
2021/09/25 08:20:40;;;;;;;14.13;11.93;;;15.20;83.90;;;;;;5030353;28;20050;-87
2021/09/25 08:23:08;;;;;;;17.25;12.23;;;15.20;83.90;;;;;;5032156;28;20048;-87
2021/09/25 08:25:35;;;;;;;16.35;11.85;;;15.30;83.80;;;;;;5030602;28;20041;-87
2021/09/25 08:28:02;;;;;;;14.60;11.35;;;15.40;83.80;;;;;;5030607;28;20061;-87
2021/09/25 08:30:29;;;;;;;18.00;13.27;;;15.50;83.80;;;;;;5029737;28;20052;-87
2021/09/25 08:32:57;;;;;;;17.42;12.60;;;15.60;83.70;;;;;;5030168;28;20045;-87
2021/09/25 08:35:24;;;;;;;23.27;13.85;;;15.70;83.80;;;;;;5030367;28;20132;-86
2021/09/25 08:37:51;;;;;;;16.98;12.73;;;15.80;83.80;;;;;;5032214;28;20130;-86
2021/09/25 08:40:21;;;;;;;14.95;11.88;;;16.00;83.90;;;;;;5032265;28;20107;-87
2021/09/25 08:42:49;;;;;;;13.63;10.65;;;16.10;83.70;;;;;;5029905;28;20453;-87
2021/09/25 08:45:17;;;;;;;12.00;9.57;;;16.30;83.50;;;;;;5030033;28;20057;-87
2021/09/25 08:47:44;;;;;;;9.88;6.55;;;16.30;83.30;;;;;;5030144;28;20053;-87
2021/09/25 08:50:14;;;;;;;11.63;9.13;;;16.40;83.00;;;;;;5029858;28;20041;-87
2021/09/25 08:52:42;;;;;;;12.25;9.98;;;16.50;82.70;;;;;;5033316;28;20498;-87
2021/09/25 08:55:11;;;;;;;13.40;10.73;;;16.60;82.50;;;;;;5031651;28;20676;-87
2021/09/25 08:57:42;;;;;;;18.00;13.55;;;16.70;82.30;;;;;;5029647;28;20509;-87
2021/09/25 09:00:37;;;;;;;16.63;12.90;;;16.80;81.90;;;;;;5029611;28;20046;-88
2021/09/25 09:03:24;;;;;;;15.52;12.85;;;16.90;81.70;;;;;;5029712;28;20049;-87
2021/09/25 09:05:53;;;;;;;15.45;12.15;;;17.00;81.40;;;;;;5029189;28;20596;-87
2021/09/25 09:08:24;;;;;;;18.00;12.25;;;17.10;81.20;;;;;;5029668;28;20108;-85
2021/09/25 09:10:51;;;;;;;20.73;12.80;;;17.20;81.10;;;;;;5031988;28;20053;-87
2021/09/25 09:13:18;;;;;;;15.45;10.68;;;17.30;81.00;;;;;;5031683;28;20046;-85
2021/09/25 09:15:49;;;;;;;14.50;10.80;;;17.40;80.80;;;;;;5029387;28;20502;-85
2021/09/25 09:18:18;;;;;;;14.43;10.38;;;17.40;80.50;;;;;;5029253;28;20049;-86
2021/09/25 09:21:10;;;;;;;13.75;10.15;;;17.60;80.20;;;;;;5030433;28;20390;-87
2021/09/25 09:23:40;;;;;;;14.80;9.23;;;17.60;80.00;;;;;;5029291;28;20045;-87
2021/09/25 09:26:08;;;;;;;12.82;8.68;;;17.80;80.00;;;;;;5014045;28;20103;-86
2021/09/25 09:28:37;;;;;;;12.25;9.07;;;17.90;79.70;;;;;;5029136;28;20084;-87
2021/09/25 09:31:06;;;;;;;12.88;8.73;;;18.00;79.40;;;;;;5031479;28;20079;-88
2021/09/25 09:33:35;;;;;;;13.38;9.25;;;18.10;79.10;;;;;;5029069;28;20045;-88
2021/09/25 09:36:22;;;;;;;10.68;8.23;;;18.30;78.80;;;;;;5028744;28;20058;-87
2021/09/25 09:39:05;;;;;;;10.68;7.15;;;18.40;78.40;;;;;;5028915;28;20096;-87
2021/09/25 09:41:35;;;;;;;11.68;8.00;;;18.60;78.10;;;;;;5029234;28;20505;-87
2021/09/25 09:44:05;;;;;;;10.75;8.30;;;18.70;77.60;;;;;;5029882;28;20478;-87
2021/09/25 09:46:36;;;;;;;14.00;9.38;;;18.90;77.30;;;;;;5032978;28;20041;-87
2021/09/25 09:49:05;;;;;;;10.05;8.38;;;19.10;76.90;;;;;;5028994;28;20477;-86
2021/09/25 09:51:35;;;;;;;9.27;6.95;;;19.20;76.30;;;;;;5028696;28;20095;-88
2021/09/25 09:54:02;;;;;;;10.90;7.22;;;19.30;76.00;;;;;;5029493;28;20124;-87
2021/09/25 09:56:29;;;;;;;10.90;8.40;;;19.40;75.70;;;;;;5028816;28;20046;-88
2021/09/25 09:59:01;;;;;;;12.82;8.25;;;19.60;75.30;;;;;;5030340;28;20049;-87
2021/09/25 10:01:28;;;;;;;10.52;8.00;;;19.70;74.80;;;;;;5032043;28;20107;-86
2021/09/25 10:03:58;;;;;;;9.48;7.10;;;19.80;74.40;;;;;;5028252;28;20144;-86
2021/09/25 10:06:26;;;;;;;14.60;8.63;;;19.90;74.10;;;;;;5028420;28;20055;-86
2021/09/25 10:08:53;;;;;;;15.65;8.45;;;20.00;73.80;;;;;;5028420;28;20045;-86
2021/09/25 10:11:22;;;;;;;10.82;8.00;;;20.10;73.10;;;;;;5028524;28;20050;-88
2021/09/25 10:13:51;;;;;;;10.27;7.35;;;20.20;72.60;;;;;;5030744;28;20060;-87
2021/09/25 10:16:18;;;;;;;9.43;6.93;;;20.40;72.50;;;;;;5030533;28;20057;-86
2021/09/25 10:18:45;;;;;;;8.95;6.88;;;20.50;72.30;;;;;;5027829;28;20065;-87
2021/09/25 10:21:14;;;;;;;8.60;6.25;;;20.60;72.30;;;;;;5028377;28;20494;-87
2021/09/25 10:23:48;;;;;;;11.57;7.35;;;20.70;72.00;;;;;;5028023;28;20472;-89
2021/09/25 10:26:20;;;;;;;9.55;6.95;;;20.90;71.30;;;;;;5028067;28;20412;-86
2021/09/25 10:28:55;;;;;;;8.48;6.20;;;21.00;71.00;;;;;;5030572;28;20498;-88
2021/09/25 10:31:22;;;;;;;9.77;6.43;;;21.20;70.70;;;;;;5030818;28;20041;-87
2021/09/25 10:34:08;;;;;;;10.82;7.72;;;21.30;70.20;;;;;;5027892;28;20053;-88
2021/09/25 10:36:36;;;;;;;11.52;7.18;;;21.40;69.60;;;;;;5027890;28;20568;-88
2021/09/25 10:39:23;;;;;;;16.80;7.30;;;21.40;69.40;;;;;;5027789;28;20045;-89
2021/09/25 10:42:10;;;;;;;8.38;6.30;;;21.50;68.80;;;;;;5026814;28;20162;-86
2021/09/25 10:44:52;;;;;;;8.65;6.43;;;21.60;68.40;;;;;;5027927;28;20068;-87
2021/09/25 10:47:26;;;;;;;8.13;5.70;;;21.80;67.90;;;;;;5013472;28;20057;-86
2021/09/25 10:49:59;;;;;;;8.13;6.40;;;21.90;67.50;;;;;;5029758;28;20054;-86
2021/09/25 10:52:48;;;;;;;7.68;5.32;;;21.90;67.60;;;;;;5030974;28;20053;-87
2021/09/25 10:55:25;;;;;;;9.05;6.90;;;22.00;67.30;;;;;;5031270;28;20115;-86
2021/09/25 10:58:19;;;;;;;9.75;6.68;;;22.10;67.00;;;;;;5027418;28;20490;-86
2021/09/25 11:01:02;;;;;;;8.63;6.18;;;22.30;66.90;;;;;;5027626;28;20457;-86
2021/09/25 11:03:48;;;;;;;8.80;6.53;;;22.40;66.40;;;;;;5026930;28;20464;-86
2021/09/25 11:06:40;;;;;;;8.98;5.68;;;22.40;66.40;;;;;;5027368;28;20053;-86
2021/09/25 11:09:26;;;;;;;9.43;5.57;;;22.60;66.20;;;;;;5027150;28;20042;-86
2021/09/25 11:11:59;;;;;;;6.55;5.00;;;22.70;66.10;;;;;;5027400;28;20072;-87
2021/09/25 11:14:40;;;;;;;7.65;5.72;;;22.80;66.10;;;;;;5027216;28;20092;-86
2021/09/25 11:17:19;;;;;;;8.90;6.53;;;22.90;65.30;;;;;;5011546;28;20041;-86
2021/09/25 11:20:05;;;;;;;8.73;5.60;;;23.00;64.80;;;;;;5026983;28;20053;-85
2021/09/25 11:22:39;;;;;;;9.35;6.38;;;23.10;64.50;;;;;;5031152;28;20053;-86
2021/09/25 11:25:07;;;;;;;9.75;6.72;;;23.20;64.60;;;;;;5027050;28;20049;-85
2021/09/25 11:27:37;;;;;;;8.25;5.95;;;23.40;64.50;;;;;;5026710;28;20057;-86
2021/09/25 11:30:18;;;;;;;11.27;8.10;;;23.40;64.30;;;;;;5026920;28;20108;-85
2021/09/25 11:32:50;;;;;;;9.20;6.82;;;23.50;63.80;;;;;;5026997;28;20088;-85
2021/09/25 11:35:23;;;;;;;12.27;6.72;;;23.60;63.30;;;;;;5027064;28;20058;-87
2021/09/25 11:38:03;;;;;;;14.32;7.07;;;23.60;63.30;;;;;;5029507;28;20104;-87
2021/09/25 11:40:36;;;;;;;13.75;7.47;;;23.70;63.00;;;;;;5030626;28;20407;-86
2021/09/25 11:43:07;;;;;;;8.57;6.07;;;23.80;62.90;;;;;;5021716;28;20049;-86
2021/09/25 11:45:37;;;;;;;9.63;7.43;;;23.90;62.70;;;;;;5026370;28;20096;-86
2021/09/25 11:48:05;;;;;;;9.10;5.88;;;23.90;62.30;;;;;;5026604;28;20572;-86
2021/09/25 11:50:35;;;;;;;7.60;5.47;;;24.00;61.90;;;;;;5009484;28;20072;-86
2021/09/25 11:53:04;;;;;;;10.10;6.82;;;24.10;61.80;;;;;;5027401;28;20112;-85
2021/09/25 11:55:32;;;;;;;8.38;5.60;;;24.20;61.80;;;;;;5030480;28;20050;-85
2021/09/25 11:58:02;;;;;;;7.18;5.38;;;24.30;61.40;;;;;;5026586;28;20461;-87
2021/09/25 12:00:41;;;;;;;8.60;6.25;;;24.40;60.90;;;;;;5026067;28;20569;-86
2021/09/25 12:03:09;;;;;;;7.47;5.15;;;24.50;60.30;;;;;;5026390;28;20049;-86
2021/09/25 12:05:38;;;;;;;7.18;5.63;;;24.60;59.90;;;;;;5026590;28;20041;-86
2021/09/25 12:08:10;;;;;;;9.98;6.03;;;24.60;59.50;;;;;;5026888;28;20057;-87
2021/09/25 12:10:42;;;;;;;7.90;5.50;;;24.60;59.40;;;;;;5026951;28;20103;-88
2021/09/25 12:13:12;;;;;;;11.23;7.37;;;24.60;59.30;;;;;;5028064;28;20045;-87
2021/09/25 12:16:10;;;;;;;8.25;5.30;;;24.60;59.40;;;;;;5025824;28;20328;-85
2021/09/25 12:18:50;;;;;;;8.60;5.72;;;24.70;58.50;;;;;;5026649;28;20053;-86
2021/09/25 12:21:20;;;;;;;9.05;6.10;;;24.70;58.40;;;;;;5026343;28;20100;-86
2021/09/25 12:24:02;;;;;;;8.57;5.38;;;24.80;58.30;;;;;;5026125;28;20465;-86
2021/09/25 12:26:30;;;;;;;11.95;5.22;;;24.80;58.40;;;;;;5026272;28;20419;-87
2021/09/25 12:29:03;;;;;;;9.85;5.68;;;24.90;58.60;;;;;;5010137;28;20604;-86
2021/09/25 12:31:32;;;;;;;9.00;5.90;;;24.90;58.50;;;;;;5029772;28;20046;-86
2021/09/25 12:34:06;;;;;;;7.82;5.85;;;25.00;58.20;;;;;;5027849;28;20077;-86
2021/09/25 12:36:36;;;;;;;8.07;5.60;;;25.10;58.10;;;;;;5026132;28;20448;-86
2021/09/25 12:39:09;;;;;;;7.97;4.43;;;25.20;58.40;;;;;;5026039;28;20053;-85
2021/09/25 12:41:38;;;;;;;8.05;5.22;;;25.30;57.80;;;;;;5026110;28;20497;-85